Time;durP1;ratioP1;P1;durP2;ratioP2;P2;SDS_P1;SDS_P2;PMS_P1;PMS_P2;Temp;Humidity;BMP_temperature;BMP_pressure;BME280_temperature;BME280_humidity;BME280_pressure;Samples;Min_cycle;Max_cycle;Signal;HPM_P1;HPM_P2
2022/12/31 00:01:18;;;;;;;0.00;0.00;;;11.00;93.80;;;;;;5012688;28;20042;-77
2022/12/31 00:03:44;;;;;;;0.00;0.00;;;11.00;93.70;;;;;;5013144;28;20046;-78
2022/12/31 00:06:25;;;;;;;0.00;0.00;;;10.90;93.80;;;;;;5013796;28;20487;-78
2022/12/31 00:08:52;;;;;;;10.27;2.75;;;10.90;93.80;;;;;;4994600;28;20049;-78
2022/12/31 00:11:19;;;;;;;0.00;0.00;;;10.90;93.90;;;;;;5013583;28;20049;-77
2022/12/31 00:13:45;;;;;;;0.00;0.00;;;10.90;93.80;;;;;;5012505;28;20486;-78
2022/12/31 00:16:15;;;;;;;0.00;0.00;;;10.90;94.00;;;;;;5012817;28;20041;-78
2022/12/31 00:18:48;;;;;;;0.10;0.10;;;10.90;94.20;;;;;;4994671;28;20050;-78
2022/12/31 00:21:15;;;;;;;0.00;0.00;;;10.90;94.10;;;;;;4976154;28;20050;-78
2022/12/31 00:23:41;;;;;;;0.00;0.00;;;11.00;94.20;;;;;;4975717;28;20133;-78
2022/12/31 00:26:13;;;;;;;0.00;0.00;;;11.00;94.30;;;;;;4993905;28;20092;-78
2022/12/31 00:28:39;;;;;;;;;;;11.00;94.30;;;;;;5012267;28;20445;-78
2022/12/31 00:31:05;;;;;;;0.00;0.00;;;11.10;94.10;;;;;;5012417;28;19921;-78
2022/12/31 00:33:31;;;;;;;0.00;0.00;;;11.00;94.10;;;;;;4995066;28;20457;-78
2022/12/31 00:36:20;;;;;;;0.00;0.00;;;11.10;94.10;;;;;;4994856;28;20125;-78
2022/12/31 00:38:48;;;;;;;0.00;0.00;;;11.10;94.00;;;;;;4977462;28;20501;-78
2022/12/31 00:41:15;;;;;;;0.40;0.40;;;11.10;94.10;;;;;;5012215;28;20064;-78
2022/12/31 00:43:41;;;;;;;0.32;0.32;;;11.10;94.00;;;;;;4980764;28;20042;-78
2022/12/31 00:46:08;;;;;;;0.10;0.10;;;11.10;94.00;;;;;;4977974;28;20590;-78
2022/12/31 00:48:34;;;;;;;0.00;0.00;;;11.10;94.00;;;;;;4988524;28;20050;-78
2022/12/31 00:51:01;;;;;;;1.35;1.25;;;11.10;94.00;;;;;;4977901;28;20050;-78
2022/12/31 00:53:27;;;;;;;0.00;0.00;;;11.00;94.00;;;;;;4975211;28;20049;-78
2022/12/31 00:56:03;;;;;;;0.00;0.00;;;11.00;93.90;;;;;;4983125;28;20108;-78
2022/12/31 00:58:29;;;;;;;0.10;0.10;;;11.00;93.90;;;;;;4977420;28;20085;-78
2022/12/31 01:00:54;;;;;;;0.00;0.00;;;11.00;93.90;;;;;;4991036;28;20817;-78
2022/12/31 01:03:20;;;;;;;7.13;1.35;;;10.90;93.90;;;;;;4987915;28;20046;-78
2022/12/31 01:05:46;;;;;;;0.00;0.00;;;10.90;93.90;;;;;;4979184;28;20037;-78
2022/12/31 01:08:11;;;;;;;0.22;0.22;;;10.90;93.90;;;;;;4980531;28;20050;-78
2022/12/31 01:11:22;;;;;;;0.00;0.00;;;10.90;93.90;;;;;;4976350;28;20073;-78
2022/12/31 01:13:23;;;;;;;0.00;0.00;;;10.80;94.00;;;;;;4971483;28;20555;-78
2022/12/31 01:15:48;;;;;;;0.00;0.00;;;10.80;94.00;;;;;;4992194;28;20078;-78
2022/12/31 01:18:14;;;;;;;0.00;0.00;;;10.80;93.90;;;;;;4998185;28;20130;-78
2022/12/31 01:20:42;;;;;;;0.00;0.00;;;10.80;94.00;;;;;;4974534;28;20042;-78
2022/12/31 01:23:09;;;;;;;0.00;0.00;;;10.80;94.00;;;;;;4977119;28;20050;-78
2022/12/31 01:25:40;;;;;;;0.00;0.00;;;10.70;94.00;;;;;;4972770;28;20038;-77
2022/12/31 01:28:07;;;;;;;0.00;0.00;;;10.70;94.00;;;;;;4974619;28;20045;-78
2022/12/31 01:30:33;;;;;;;0.00;0.00;;;10.80;94.10;;;;;;4973936;28;20057;-78
2022/12/31 01:32:58;;;;;;;0.00;0.00;;;10.80;94.10;;;;;;4992007;28;20456;-77
2022/12/31 01:35:24;;;;;;;0.00;0.00;;;10.70;94.10;;;;;;4953679;28;20052;-78
2022/12/31 01:37:50;;;;;;;0.00;0.00;;;10.70;94.00;;;;;;4991008;28;20038;-77
2022/12/31 01:40:16;;;;;;;0.00;0.00;;;10.70;93.90;;;;;;4978771;28;20449;-78
2022/12/31 01:42:42;;;;;;;0.00;0.00;;;10.60;93.90;;;;;;4995993;28;20133;-78
2022/12/31 01:45:12;;;;;;;0.00;0.00;;;10.60;93.80;;;;;;4982508;28;20454;-78
2022/12/31 01:47:44;;;;;;;0.00;0.00;;;10.60;93.90;;;;;;4981634;28;20046;-78
2022/12/31 01:50:17;;;;;;;0.00;0.00;;;10.60;93.90;;;;;;4990109;28;20458;-79
2022/12/31 01:52:47;;;;;;;0.25;0.25;;;10.50;93.90;;;;;;4955573;28;20835;-78
2022/12/31 01:55:19;;;;;;;0.00;0.00;;;10.50;93.90;;;;;;4981635;28;21194;-78
2022/12/31 01:57:47;;;;;;;0.38;0.38;;;10.50;93.90;;;;;;4989927;28;20054;-78
2022/12/31 02:00:13;;;;;;;0.10;0.10;;;10.50;93.90;;;;;;4990682;28;20050;-78
2022/12/31 02:02:39;;;;;;;0.00;0.00;;;10.50;93.90;;;;;;4990403;28;20049;-78
2022/12/31 02:05:14;;;;;;;0.00;0.00;;;10.40;93.90;;;;;;4990091;28;20038;-78
2022/12/31 02:07:40;;;;;;;0.00;0.00;;;10.50;93.90;;;;;;4989926;28;20129;-78
2022/12/31 02:10:06;;;;;;;0.10;0.10;;;10.50;94.00;;;;;;4990511;28;20042;-78
2022/12/31 02:12:32;;;;;;;0.00;0.00;;;10.50;93.90;;;;;;4989523;28;20038;-78
2022/12/31 02:14:57;;;;;;;0.15;0.15;;;10.40;94.00;;;;;;4975957;28;20379;-78
2022/12/31 02:17:35;;;;;;;0.00;0.00;;;10.50;94.00;;;;;;4988608;28;20639;-78
2022/12/31 02:20:22;;;;;;;0.00;0.00;;;10.40;94.00;;;;;;4972237;28;20074;-78
2022/12/31 02:23:00;;;;;;;0.00;0.00;;;10.30;94.00;;;;;;4989854;28;20128;-78
2022/12/31 02:25:52;;;;;;;0.00;0.00;;;10.30;93.90;;;;;;4955381;28;20498;-78
2022/12/31 02:28:24;;;;;;;0.00;0.00;;;10.30;93.90;;;;;;4980182;28;20082;-78
2022/12/31 02:30:59;;;;;;;0.00;0.00;;;10.20;93.90;;;;;;4973052;28;20494;-78
2022/12/31 02:33:55;;;;;;;0.00;0.00;;;10.20;94.00;;;;;;4988875;28;20088;-78
2022/12/31 02:36:26;;;;;;;0.00;0.00;;;10.10;93.90;;;;;;4989175;28;20093;-78
2022/12/31 02:38:53;;;;;;;0.00;0.00;;;10.10;93.90;;;;;;4968772;28;20407;-78
2022/12/31 02:44:26;;;;;;;0.55;0.55;;;10.10;93.90;;;;;;4988908;28;20058;-78
2022/12/31 02:47:03;;;;;;;0.20;0.20;;;10.00;94.00;;;;;;5003760;28;20057;-78
2022/12/31 02:49:50;;;;;;;0.00;0.00;;;10.00;94.00;;;;;;4989715;28;20054;-78
2022/12/31 02:52:37;;;;;;;0.00;0.00;;;10.00;94.00;;;;;;4983856;28;20052;-78
2022/12/31 02:55:45;;;;;;;0.00;0.00;;;10.00;94.00;;;;;;4972311;28;20081;-78
2022/12/31 03:04:31;;;;;;;0.00;0.00;;;10.00;94.10;;;;;;4971448;28;20073;-78
2022/12/31 03:07:01;;;;;;;0.03;0.03;;;10.00;94.20;;;;;;5000560;28;20113;-78
2022/12/31 03:09:27;;;;;;;0.00;0.00;;;10.00;94.20;;;;;;4988983;28;20061;-79
2022/12/31 03:14:36;;;;;;;0.00;0.00;;;10.10;94.20;;;;;;4973224;28;20054;-78
2022/12/31 03:17:02;;;;;;;0.00;0.00;;;10.10;94.20;;;;;;4991566;28;20109;-78
2022/12/31 03:22:27;;;;;;;0.00;0.00;;;10.10;94.30;;;;;;4976131;28;20133;-79
2022/12/31 03:27:48;;;;;;;0.00;0.00;;;10.10;94.30;;;;;;4983835;28;20054;-79
2022/12/31 03:30:16;;;;;;;0.00;0.00;;;10.10;94.30;;;;;;4978001;28;20048;-78
2022/12/31 03:32:43;;;;;;;0.00;0.00;;;10.10;94.30;;;;;;4968555;28;20057;-79
2022/12/31 03:35:10;;;;;;;0.00;0.00;;;10.00;94.20;;;;;;4994336;28;20129;-78
2022/12/31 03:37:38;;;;;;;0.00;0.00;;;10.10;94.20;;;;;;4995535;28;20043;-78
2022/12/31 03:40:05;;;;;;;3.40;1.85;;;10.00;94.20;;;;;;4976902;28;20054;-79
2022/12/31 03:42:30;;;;;;;0.00;0.00;;;10.10;94.20;;;;;;4993803;28;20054;-78
2022/12/31 03:44:56;;;;;;;0.00;0.00;;;10.10;94.20;;;;;;4994237;28;20055;-78
2022/12/31 03:47:22;;;;;;;0.00;0.00;;;10.00;94.10;;;;;;4995454;28;20049;-78
2022/12/31 03:49:47;;;;;;;0.00;0.00;;;10.00;94.20;;;;;;4993307;28;20043;-79
2022/12/31 03:52:13;;;;;;;0.00;0.00;;;10.00;94.20;;;;;;4995886;28;20053;-79
2022/12/31 03:54:38;;;;;;;0.00;0.00;;;10.00;94.20;;;;;;5012874;28;20458;-78
2022/12/31 03:57:04;;;;;;;0.00;0.00;;;10.00;94.10;;;;;;4997935;28;20038;-79
2022/12/31 03:59:29;;;;;;;0.00;0.00;;;10.10;94.20;;;;;;4993798;28;20092;-78
2022/12/31 04:01:55;;;;;;;0.00;0.00;;;10.00;94.10;;;;;;4975999;28;20069;-79
2022/12/31 04:04:21;;;;;;;0.00;0.00;;;10.00;94.20;;;;;;5008544;28;20038;-79
2022/12/31 04:06:46;;;;;;;0.00;0.00;;;10.00;94.10;;;;;;4975374;28;20042;-79
2022/12/31 04:09:12;;;;;;;0.00;0.00;;;10.00;94.20;;;;;;4975459;28;20577;-79
2022/12/31 04:11:38;;;;;;;0.00;0.00;;;9.90;94.10;;;;;;4975714;28;20065;-78
2022/12/31 04:14:03;;;;;;;0.00;0.00;;;9.90;94.10;;;;;;4970686;28;20133;-78
2022/12/31 04:16:29;;;;;;;0.10;0.10;;;9.90;94.10;;;;;;4975417;28;20383;-78
2022/12/31 04:18:55;;;;;;;0.00;0.00;;;9.90;94.10;;;;;;4992801;28;20053;-79
2022/12/31 04:21:20;;;;;;;0.00;0.00;;;9.90;94.20;;;;;;4993258;28;20049;-78
2022/12/31 04:23:46;;;;;;;0.00;0.00;;;9.90;94.20;;;;;;4975438;28;20073;-79
2022/12/31 04:26:11;;;;;;;0.00;0.00;;;9.90;94.20;;;;;;4975468;28;20050;-78
2022/12/31 04:28:37;;;;;;;0.00;0.00;;;9.90;94.20;;;;;;4975883;28;20126;-79
2022/12/31 04:31:03;;;;;;;0.00;0.00;;;9.90;94.30;;;;;;4975427;28;20109;-78
2022/12/31 04:33:29;;;;;;;0.20;0.20;;;9.90;94.30;;;;;;4975289;28;20057;-78
2022/12/31 04:36:01;;;;;;;0.00;0.00;;;9.90;94.20;;;;;;4992017;28;20043;-78
2022/12/31 04:38:28;;;;;;;0.00;0.00;;;9.80;94.30;;;;;;4975613;28;20054;-78
2022/12/31 04:43:38;;;;;;;0.68;0.68;;;9.80;94.40;;;;;;4987516;28;20109;-78
2022/12/31 04:46:05;;;;;;;0.00;0.00;;;9.80;94.30;;;;;;4996491;28;20191;-78
2022/12/31 04:48:31;;;;;;;0.00;0.00;;;9.70;94.20;;;;;;4978596;28;20871;-78
2022/12/31 04:50:57;;;;;;;0.00;0.00;;;9.70;94.30;;;;;;4978909;28;20046;-78
2022/12/31 04:53:23;;;;;;;0.00;0.00;;;9.60;94.30;;;;;;5003037;28;20052;-78
2022/12/31 04:55:49;;;;;;;0.00;0.00;;;9.70;94.40;;;;;;4978498;28;20092;-78
2022/12/31 04:58:15;;;;;;;0.00;0.00;;;9.60;94.30;;;;;;4975907;28;20491;-78
2022/12/31 05:00:41;;;;;;;0.00;0.00;;;9.60;94.40;;;;;;4997056;28;20713;-78
2022/12/31 05:03:06;;;;;;;0.00;0.00;;;9.60;94.40;;;;;;4987552;28;20050;-78
2022/12/31 05:05:32;;;;;;;0.00;0.00;;;9.60;94.50;;;;;;4988763;28;20126;-78
2022/12/31 05:07:57;;;;;;;0.00;0.00;;;9.60;94.50;;;;;;4976308;28;20045;-76
2022/12/31 05:10:23;;;;;;;0.00;0.00;;;9.60;94.60;;;;;;4976239;28;20655;-76
2022/12/31 05:12:49;;;;;;;0.52;0.52;;;9.70;94.60;;;;;;4966030;28;20044;-76
2022/12/31 05:15:14;;;;;;;0.03;0.03;;;9.70;94.70;;;;;;5011364;28;20080;-76
2022/12/31 05:17:40;;;;;;;0.00;0.00;;;9.70;94.80;;;;;;4993814;28;20046;-76
2022/12/31 05:20:06;;;;;;;0.00;0.00;;;9.70;94.80;;;;;;4991898;28;20468;-76
2022/12/31 05:22:32;;;;;;;0.00;0.00;;;9.70;94.90;;;;;;4964533;28;20049;-77
2022/12/31 05:24:58;;;;;;;0.05;0.05;;;9.80;95.00;;;;;;4975973;28;20046;-76
2022/12/31 05:27:25;;;;;;;0.00;0.00;;;9.90;95.00;;;;;;4987109;28;20128;-77
2022/12/31 05:29:50;;;;;;;0.00;0.00;;;9.90;95.00;;;;;;4974609;28;20132;-77
2022/12/31 05:32:16;;;;;;;0.00;0.00;;;9.90;95.10;;;;;;4993538;28;20157;-77
2022/12/31 05:34:42;;;;;;;0.00;0.00;;;10.00;95.20;;;;;;4977120;28;20046;-77
2022/12/31 05:37:08;;;;;;;0.00;0.00;;;10.00;95.10;;;;;;4991569;28;20388;-77
2022/12/31 05:39:33;;;;;;;0.63;0.57;;;10.00;95.10;;;;;;4974950;28;20049;-76
2022/12/31 05:41:59;;;;;;;0.10;0.10;;;10.00;95.10;;;;;;4981021;28;20039;-77
2022/12/31 05:44:25;;;;;;;0.00;0.00;;;10.00;95.20;;;;;;5006667;28;20466;-77
2022/12/31 05:46:50;;;;;;;0.00;0.00;;;10.00;95.20;;;;;;5010893;28;20100;-76
2022/12/31 05:49:16;;;;;;;0.00;0.00;;;10.00;95.30;;;;;;4984931;28;20081;-77
2022/12/31 05:51:41;;;;;;;0.10;0.10;;;9.90;95.30;;;;;;5001823;28;20498;-77
2022/12/31 05:54:07;;;;;;;0.10;0.10;;;9.90;95.30;;;;;;5007903;28;20056;-77
2022/12/31 05:56:33;;;;;;;0.00;0.00;;;9.90;95.30;;;;;;4992614;28;20045;-76
2022/12/31 05:58:58;;;;;;;0.00;0.00;;;9.90;95.40;;;;;;4982922;28;20050;-76
2022/12/31 06:01:24;;;;;;;0.00;0.00;;;9.90;95.30;;;;;;4986304;28;20045;-76
2022/12/31 06:03:49;;;;;;;0.00;0.00;;;9.90;95.40;;;;;;4979868;28;20128;-76
2022/12/31 06:06:15;;;;;;;0.65;0.43;;;9.90;95.40;;;;;;4982848;28;20547;-76
2022/12/31 06:08:40;;;;;;;0.00;0.00;;;9.90;95.40;;;;;;4981067;28;20049;-76
2022/12/31 06:11:06;;;;;;;0.00;0.00;;;9.80;95.40;;;;;;4989285;28;20728;-76
2022/12/31 06:13:32;;;;;;;0.00;0.00;;;9.90;95.40;;;;;;4991929;28;20153;-75
2022/12/31 06:16:03;;;;;;;0.00;0.00;;;9.80;95.40;;;;;;4986363;28;20045;-76
2022/12/31 06:18:28;;;;;;;0.00;0.00;;;9.90;95.40;;;;;;5009074;28;20046;-75
2022/12/31 06:20:57;;;;;;;0.00;0.00;;;9.80;95.40;;;;;;5008496;28;20053;-76
2022/12/31 06:23:23;;;;;;;0.00;0.00;;;9.80;95.40;;;;;;5005519;28;20084;-75
2022/12/31 06:25:48;;;;;;;0.00;0.00;;;9.80;95.40;;;;;;4987717;28;20050;-76
2022/12/31 06:28:14;;;;;;;0.00;0.00;;;9.80;95.50;;;;;;4991147;28;20538;-76
2022/12/31 06:30:40;;;;;;;0.05;0.05;;;9.80;95.50;;;;;;4973402;28;20038;-75
2022/12/31 06:33:05;;;;;;;0.00;0.00;;;9.80;95.50;;;;;;4972862;28;20073;-76
2022/12/31 06:35:31;;;;;;;0.00;0.00;;;9.70;95.50;;;;;;4973527;28;20038;-75
2022/12/31 06:37:56;;;;;;;0.00;0.00;;;9.70;95.50;;;;;;4995140;28;20099;-76
2022/12/31 06:40:22;;;;;;;1.95;1.27;;;9.70;95.50;;;;;;4981012;28;20061;-75
2022/12/31 06:42:48;;;;;;;0.05;0.05;;;9.70;95.50;;;;;;4991028;28;20172;-75
2022/12/31 06:45:13;;;;;;;0.13;0.13;;;9.60;95.50;;;;;;4973534;28;20046;-76
2022/12/31 06:47:39;;;;;;;0.00;0.00;;;9.70;95.50;;;;;;5009187;28;20042;-76
2022/12/31 06:50:05;;;;;;;0.00;0.00;;;9.70;95.50;;;;;;5009918;28;20057;-73
2022/12/31 06:52:31;;;;;;;0.00;0.00;;;9.60;95.50;;;;;;5009596;28;20519;-76
2022/12/31 06:54:57;;;;;;;0.00;0.00;;;9.60;95.50;;;;;;5010366;28;20057;-76
2022/12/31 06:57:24;;;;;;;0.00;0.00;;;9.60;95.50;;;;;;5010560;28;20041;-76
2022/12/31 06:59:49;;;;;;;0.00;0.00;;;9.60;95.50;;;;;;5014523;28;20057;-76
2022/12/31 07:02:36;;;;;;;0.00;0.00;;;9.50;95.50;;;;;;5016398;28;20037;-76
2022/12/31 07:05:08;;;;;;;0.00;0.00;;;9.60;95.60;;;;;;5015989;28;20445;-77
2022/12/31 07:07:37;;;;;;;;;;;9.60;95.60;;;;;;5002256;28;20129;-76
2022/12/31 07:10:43;;;;;;;0.00;0.00;;;9.60;95.60;;;;;;5016392;28;19922;-77
2022/12/31 07:13:44;;;;;;;0.00;0.00;;;9.60;95.60;;;;;;4979108;28;20383;-76
2022/12/31 07:16:19;;;;;;;0.00;0.00;;;9.60;95.60;;;;;;5011350;28;20443;-77
2022/12/31 07:18:59;;;;;;;0.00;0.00;;;9.60;95.60;;;;;;5008677;28;20057;-76
2022/12/31 07:21:44;;;;;;;0.00;0.00;;;9.60;95.70;;;;;;4998140;28;20363;-76
2022/12/31 07:24:10;;;;;;;0.00;0.00;;;9.60;95.70;;;;;;5016128;28;20057;-76
2022/12/31 07:27:13;;;;;;;0.00;0.00;;;9.60;95.70;;;;;;5010347;28;20050;-73
2022/12/31 07:29:45;;;;;;;0.00;0.00;;;9.60;95.70;;;;;;4992628;28;20573;-76
2022/12/31 07:32:48;;;;;;;0.00;0.00;;;9.70;95.80;;;;;;4995608;28;20038;-75
2022/12/31 07:35:42;;;;;;;0.00;0.00;;;9.70;95.70;;;;;;4997890;28;20093;-75
2022/12/31 07:38:38;;;;;;;0.00;0.00;;;9.70;95.80;;;;;;5014177;28;20044;-75
2022/12/31 07:41:34;;;;;;;0.00;0.00;;;9.70;95.80;;;;;;4993068;28;20046;-76
2022/12/31 07:44:14;;;;;;;0.00;0.00;;;9.80;95.80;;;;;;5006254;28;20857;-76
2022/12/31 07:46:57;;;;;;;0.00;0.00;;;9.90;95.80;;;;;;4990559;28;20050;-76
2022/12/31 07:49:24;;;;;;;0.00;0.00;;;9.90;95.80;;;;;;4994221;28;20070;-76
2022/12/31 07:51:50;;;;;;;0.00;0.00;;;9.80;95.90;;;;;;4995093;28;20159;-76
2022/12/31 07:54:16;;;;;;;0.08;0.08;;;9.90;95.90;;;;;;4962125;28;20058;-76
2022/12/31 07:56:42;;;;;;;0.00;0.00;;;9.90;95.90;;;;;;5003420;28;20525;-76
2022/12/31 07:59:30;;;;;;;0.00;0.00;;;10.00;95.90;;;;;;4994537;28;20142;-76
2022/12/31 08:02:01;;;;;;;0.00;0.00;;;10.00;95.90;;;;;;5001732;28;20053;-76
2022/12/31 08:04:48;;;;;;;0.00;0.00;;;10.00;95.90;;;;;;4994778;28;20543;-76
2022/12/31 08:07:17;;;;;;;0.00;0.00;;;10.10;96.00;;;;;;4977664;28;20069;-76
2022/12/31 08:09:51;;;;;;;0.00;0.00;;;10.10;96.10;;;;;;4994591;28;20054;-76
2022/12/31 08:12:18;;;;;;;0.00;0.00;;;10.20;96.20;;;;;;4987488;28;20076;-77
2022/12/31 08:14:46;;;;;;;0.00;0.00;;;10.30;96.20;;;;;;4990609;28;20066;-75
2022/12/31 08:17:17;;;;;;;0.00;0.00;;;10.30;96.30;;;;;;4994543;28;20074;-75
2022/12/31 08:19:44;;;;;;;0.00;0.00;;;10.40;96.30;;;;;;4993839;28;20415;-74
2022/12/31 08:22:22;;;;;;;0.00;0.00;;;10.50;96.30;;;;;;5001723;28;20376;-75
2022/12/31 08:25:15;;;;;;;0.00;0.00;;;10.60;96.30;;;;;;5001614;28;20094;-75
2022/12/31 08:27:40;;;;;;;0.00;0.00;;;10.60;96.30;;;;;;4987557;28;20070;-75
2022/12/31 08:30:09;;;;;;;0.00;0.00;;;10.60;96.30;;;;;;4991544;28;20577;-75
2022/12/31 08:32:59;;;;;;;0.00;0.00;;;10.80;96.30;;;;;;4981103;28;20663;-75
2022/12/31 08:35:52;;;;;;;0.00;0.00;;;10.90;96.30;;;;;;4993370;28;20096;-75
2022/12/31 08:38:46;;;;;;;0.00;0.00;;;10.90;96.30;;;;;;4990801;28;20069;-75
2022/12/31 08:41:31;;;;;;;0.00;0.00;;;10.90;96.40;;;;;;4973935;28;20077;-75
2022/12/31 08:44:04;;;;;;;0.00;0.00;;;11.00;96.40;;;;;;4991784;28;20414;-76
2022/12/31 08:46:37;;;;;;;0.00;0.00;;;11.00;96.40;;;;;;4986700;28;20211;-76
2022/12/31 08:49:03;;;;;;;0.00;0.00;;;11.10;96.40;;;;;;4970677;28;20189;-76
2022/12/31 08:51:29;;;;;;;0.00;0.00;;;11.10;96.40;;;;;;5003305;28;20132;-77
2022/12/31 08:53:55;;;;;;;0.00;0.00;;;11.10;96.30;;;;;;5010488;28;20197;-77
2022/12/31 08:56:23;;;;;;;0.00;0.00;;;11.10;96.30;;;;;;4988131;28;21064;-77
2022/12/31 08:59:17;;;;;;;0.00;0.00;;;11.20;96.30;;;;;;5010555;28;20453;-78
2022/12/31 09:02:20;;;;;;;0.00;0.00;;;11.20;96.30;;;;;;5009622;28;20120;-77
2022/12/31 09:05:07;;;;;;;0.00;0.00;;;11.20;96.30;;;;;;4991877;28;20064;-77
2022/12/31 09:07:55;;;;;;;0.00;0.00;;;11.10;96.30;;;;;;5000858;28;20057;-78
2022/12/31 09:10:37;;;;;;;0.00;0.00;;;11.20;96.30;;;;;;5002857;28;20113;-75
2022/12/31 09:13:41;;;;;;;0.00;0.00;;;11.20;96.20;;;;;;4990180;28;20053;-77
2022/12/31 09:16:35;;;;;;;0.00;0.00;;;11.20;96.20;;;;;;4996766;28;20046;-77
2022/12/31 09:19:00;;;;;;;0.00;0.00;;;11.10;96.10;;;;;;5008899;28;20658;-63
2022/12/31 09:21:26;;;;;;;0.00;0.00;;;11.20;96.30;;;;;;5008772;28;20034;-77
2022/12/31 09:23:52;;;;;;;0.00;0.00;;;11.20;96.10;;;;;;5007459;28;20042;-77
2022/12/31 09:26:49;;;;;;;0.20;0.20;;;11.20;96.00;;;;;;5009272;28;20046;-75
2022/12/31 09:29:33;;;;;;;0.00;0.00;;;11.20;96.10;;;;;;5009398;28;20054;-75
2022/12/31 09:32:13;;;;;;;0.00;0.00;;;11.20;96.10;;;;;;5008269;28;20074;-77
2022/12/31 09:34:53;;;;;;;0.00;0.00;;;11.20;96.10;;;;;;5000415;28;20566;-80
2022/12/31 09:37:35;;;;;;;0.00;0.00;;;11.20;96.00;;;;;;4995259;28;20465;-76
2022/12/31 09:40:22;;;;;;;0.00;0.00;;;11.20;96.10;;;;;;5005190;28;20077;-79
2022/12/31 09:43:21;;;;;;;0.00;0.00;;;11.20;96.10;;;;;;5003485;28;20113;-79
2022/12/31 09:46:21;;;;;;;0.00;0.00;;;11.20;96.00;;;;;;5008080;28;20088;-74
2022/12/31 09:49:12;;;;;;;0.00;0.00;;;11.30;96.00;;;;;;4985772;28;20454;-76
2022/12/31 09:51:54;;;;;;;0.00;0.00;;;11.30;96.00;;;;;;4992871;28;20041;-75
2022/12/31 09:54:29;;;;;;;0.03;0.03;;;11.30;96.00;;;;;;5006053;28;20069;-74
2022/12/31 09:57:25;;;;;;;0.00;0.00;;;11.30;95.90;;;;;;5008359;28;20140;-74
2022/12/31 10:00:00;;;;;;;0.50;0.50;;;11.50;95.90;;;;;;4988492;28;20418;-74
2022/12/31 10:02:59;;;;;;;0.00;0.00;;;11.60;95.90;;;;;;5004992;28;20046;-74
2022/12/31 10:05:24;;;;;;;0.00;0.00;;;11.60;95.60;;;;;;5000604;28;20046;-74
2022/12/31 10:07:50;;;;;;;0.00;0.00;;;11.80;95.20;;;;;;4997789;28;20041;-74
2022/12/31 10:10:24;;;;;;;0.00;0.00;;;11.90;95.00;;;;;;4984239;28;20038;-73
2022/12/31 10:12:59;;;;;;;0.30;0.30;;;12.00;94.90;;;;;;5005469;28;20044;-74
2022/12/31 10:15:59;;;;;;;0.38;0.38;;;12.00;94.60;;;;;;4973716;28;20360;-73
2022/12/31 10:18:36;;;;;;;0.00;0.00;;;12.10;94.20;;;;;;4990190;28;20042;-73
2022/12/31 10:21:27;;;;;;;0.00;0.00;;;12.10;93.80;;;;;;5006028;28;20052;-73
2022/12/31 10:24:11;;;;;;;0.00;0.00;;;12.10;93.90;;;;;;4992071;28;20041;-73
2022/12/31 10:27:02;;;;;;;0.10;0.10;;;12.10;93.60;;;;;;4975290;28;20046;-73
2022/12/31 10:30:00;;;;;;;0.10;0.10;;;12.20;93.30;;;;;;4995191;28;20509;-71
2022/12/31 10:32:52;;;;;;;0.00;0.00;;;12.30;93.10;;;;;;4988796;28;20149;-74
2022/12/31 10:35:40;;;;;;;1.75;0.45;;;12.30;93.10;;;;;;5004938;28;20053;-74
2022/12/31 10:38:26;;;;;;;0.00;0.00;;;12.40;92.80;;;;;;4973080;28;20063;-73
2022/12/31 10:41:33;;;;;;;4.95;2.33;;;12.50;92.60;;;;;;5001229;28;20049;-73
2022/12/31 10:44:21;;;;;;;0.40;0.40;;;12.50;92.50;;;;;;4990227;28;20081;-73
2022/12/31 10:47:05;;;;;;;0.10;0.10;;;12.50;92.20;;;;;;4990966;28;20042;-73
2022/12/31 10:49:51;;;;;;;2.13;1.38;;;12.50;92.30;;;;;;4991961;28;20407;-73
2022/12/31 10:52:29;;;;;;;0.20;0.20;;;12.50;92.30;;;;;;4991603;28;20132;-73
2022/12/31 10:55:27;;;;;;;0.00;0.00;;;12.50;92.10;;;;;;4988940;28;20058;-73
2022/12/31 10:58:11;;;;;;;0.00;0.00;;;12.60;92.00;;;;;;4991711;28;20058;-73
2022/12/31 11:00:57;;;;;;;0.15;0.15;;;12.50;92.10;;;;;;4972858;28;20053;-73
2022/12/31 11:03:26;;;;;;;0.28;0.28;;;12.60;92.10;;;;;;4974943;28;20109;-74
2022/12/31 11:06:06;;;;;;;0.50;0.50;;;12.70;92.10;;;;;;5006603;28;20096;-73
2022/12/31 11:09:06;;;;;;;0.00;0.00;;;12.70;91.90;;;;;;5008719;28;20057;-74
2022/12/31 11:11:54;;;;;;;0.40;0.40;;;12.60;91.90;;;;;;4971594;28;20054;-74
2022/12/31 11:14:45;;;;;;;0.30;0.30;;;12.60;91.90;;;;;;4983594;28;20093;-74
2022/12/31 11:17:39;;;;;;;0.00;0.00;;;12.70;91.80;;;;;;5007845;28;20188;-73
2022/12/31 11:20:41;;;;;;;0.08;0.08;;;12.70;91.90;;;;;;4989746;28;20068;-73
2022/12/31 11:23:25;;;;;;;0.00;0.00;;;12.70;92.00;;;;;;4991390;28;20659;-74
2022/12/31 11:26:28;;;;;;;0.00;0.00;;;12.80;92.00;;;;;;4989209;28;20045;-73
2022/12/31 11:29:10;;;;;;;0.20;0.20;;;12.80;92.20;;;;;;4971402;28;20152;-74
2022/12/31 11:32:00;;;;;;;0.00;0.00;;;12.90;92.30;;;;;;5007936;28;20498;-73
2022/12/31 11:34:50;;;;;;;0.00;0.00;;;12.90;92.30;;;;;;4958026;28;20092;-73
2022/12/31 11:37:31;;;;;;;1.00;1.00;;;12.90;92.60;;;;;;4986241;28;20038;-73
2022/12/31 11:40:43;;;;;;;1.58;0.80;;;12.90;93.00;;;;;;4989467;28;20457;-75
2022/12/31 11:43:19;;;;;;;0.10;0.10;;;12.90;93.00;;;;;;4916430;28;20084;-75
2022/12/31 11:46:13;;;;;;;0.00;0.00;;;13.00;92.90;;;;;;4992840;28;20581;-76
2022/12/31 11:49:09;;;;;;;0.00;0.00;;;12.90;93.10;;;;;;4990705;28;20053;-77
2022/12/31 11:52:09;;;;;;;9.73;2.65;;;12.90;93.40;;;;;;4995190;28;20089;-78
2022/12/31 11:55:00;;;;;;;0.00;0.00;;;12.90;93.40;;;;;;4981301;28;20057;-78
2022/12/31 11:57:37;;;;;;;2.92;0.70;;;12.90;93.40;;;;;;4993512;28;20057;-76
2022/12/31 12:00:17;;;;;;;0.00;0.00;;;12.90;93.50;;;;;;4993337;28;20060;-78
2022/12/31 12:02:47;;;;;;;0.55;0.55;;;12.90;93.50;;;;;;4993294;28;20038;-77
2022/12/31 12:05:19;;;;;;;0.00;0.00;;;12.80;93.60;;;;;;4994398;28;20049;-78
2022/12/31 12:07:45;;;;;;;0.00;0.00;;;12.80;93.70;;;;;;5011934;28;20053;-77
2022/12/31 12:10:21;;;;;;;0.00;0.00;;;12.80;93.80;;;;;;5011915;28;20156;-77
2022/12/31 12:12:46;;;;;;;0.47;0.43;;;12.70;93.80;;;;;;5009661;28;20052;-76
2022/12/31 12:15:23;;;;;;;0.00;0.00;;;12.80;93.80;;;;;;4989461;28;20045;-78
2022/12/31 12:17:52;;;;;;;0.00;0.00;;;12.60;93.90;;;;;;4977939;28;20115;-70
2022/12/31 12:20:26;;;;;;;0.00;0.00;;;12.60;93.90;;;;;;5010949;28;20053;-76
2022/12/31 12:22:55;;;;;;;0.43;0.43;;;12.70;93.80;;;;;;5011005;28;20048;-74
2022/12/31 12:25:24;;;;;;;0.65;0.65;;;12.70;93.70;;;;;;5011630;28;20178;-75
2022/12/31 12:27:50;;;;;;;0.05;0.05;;;12.60;93.50;;;;;;5011515;28;20042;-74
2022/12/31 12:30:25;;;;;;;0.08;0.08;;;12.60;93.60;;;;;;5011106;28;20042;-75
2022/12/31 12:33:03;;;;;;;0.00;0.00;;;12.60;93.50;;;;;;5010092;28;20542;-75
2022/12/31 12:35:32;;;;;;;0.00;0.00;;;12.60;93.50;;;;;;4993681;28;20129;-75
2022/12/31 12:38:00;;;;;;;0.00;0.00;;;12.60;93.60;;;;;;4996073;28;20387;-76
2022/12/31 12:40:26;;;;;;;0.00;0.00;;;12.60;93.50;;;;;;5010370;28;20038;-76
2022/12/31 12:42:53;;;;;;;0.35;0.35;;;12.60;93.40;;;;;;5011512;28;20069;-75
2022/12/31 12:45:23;;;;;;;0.45;0.45;;;12.60;93.60;;;;;;5010703;28;20513;-76
2022/12/31 12:47:55;;;;;;;0.00;0.00;;;12.50;93.50;;;;;;4993663;28;20550;-75
2022/12/31 12:50:24;;;;;;;0.00;0.00;;;12.60;93.40;;;;;;5009005;28;20043;-75
2022/12/31 12:53:02;;;;;;;0.10;0.10;;;12.60;93.30;;;;;;4971154;28;20131;-75
2022/12/31 12:56:01;;;;;;;0.45;0.45;;;12.60;93.20;;;;;;4991091;28;20384;-75
2022/12/31 12:58:57;;;;;;;0.10;0.10;;;12.60;92.90;;;;;;5007275;28;20108;-75
2022/12/31 13:01:38;;;;;;;0.05;0.05;;;12.60;92.70;;;;;;5005349;28;20449;-74
2022/12/31 13:04:21;;;;;;;0.00;0.00;;;12.60;92.50;;;;;;4976171;28;20085;-74
2022/12/31 13:07:11;;;;;;;0.00;0.00;;;12.60;92.60;;;;;;4989198;28;20038;-75
2022/12/31 13:09:55;;;;;;;0.00;0.00;;;12.60;92.60;;;;;;4993511;28;20054;-74
2022/12/31 13:12:42;;;;;;;0.00;0.00;;;12.50;92.70;;;;;;5010625;28;20049;-75
2022/12/31 13:15:51;;;;;;;0.00;0.00;;;12.60;92.70;;;;;;5010870;28;20049;-74
2022/12/31 13:18:38;;;;;;;0.20;0.20;;;12.60;92.70;;;;;;5009605;28;20138;-75
2022/12/31 13:21:36;;;;;;;0.10;0.10;;;12.50;92.70;;;;;;4976673;28;20077;-75
2022/12/31 13:24:26;;;;;;;0.00;0.00;;;12.50;93.10;;;;;;4967030;28;20169;-74
2022/12/31 13:27:26;;;;;;;0.00;0.00;;;12.50;93.30;;;;;;4991768;28;20057;-74
2022/12/31 13:29:55;;;;;;;0.00;0.00;;;12.50;93.40;;;;;;5008206;28;20058;-73
2022/12/31 13:32:28;;;;;;;0.20;0.20;;;12.50;93.70;;;;;;5001883;28;20046;-73
2022/12/31 13:35:14;;;;;;;0.10;0.10;;;12.50;93.70;;;;;;5004013;28;20050;-70
2022/12/31 13:37:40;;;;;;;0.00;0.00;;;12.50;93.80;;;;;;4988165;28;20502;-71
2022/12/31 13:40:21;;;;;;;0.00;0.00;;;12.50;93.90;;;;;;5006994;28;20096;-75
2022/12/31 13:43:06;;;;;;;0.00;0.00;;;12.50;93.90;;;;;;4992059;28;20498;-74
2022/12/31 13:45:37;;;;;;;0.00;0.00;;;12.50;94.10;;;;;;4985299;28;21626;-74
2022/12/31 13:48:12;;;;;;;0.00;0.00;;;12.40;94.20;;;;;;5003432;28;20061;-74
2022/12/31 13:50:56;;;;;;;0.00;0.00;;;12.50;94.30;;;;;;4973046;28;20086;-74